sensor_id;sensor_type;location;lat;lon;timestamp;pressure;altitude;pressure_sealevel;temperature;humidity
13974;BME280;7060;43.770;4.008;2022-09-03T00:00:24;100733.06;;;19.97;76.31
13974;BME280;7060;43.770;4.008;2022-09-03T00:02:59;100738.09;;;19.93;76.21
13974;BME280;7060;43.770;4.008;2022-09-03T00:05:35;100732.22;;;19.90;76.58
13974;BME280;7060;43.770;4.008;2022-09-03T00:08:09;100730.34;;;19.90;76.81
13974;BME280;7060;43.770;4.008;2022-09-03T00:10:44;100736.81;;;19.89;76.73
13974;BME280;7060;43.770;4.008;2022-09-03T00:13:19;100699.66;;;19.70;77.18
13974;BME280;7060;43.770;4.008;2022-09-03T00:15:52;100734.09;;;19.89;77.16
13974;BME280;7060;43.770;4.008;2022-09-03T00:18:26;100737.03;;;19.88;77.12
13974;BME280;7060;43.770;4.008;2022-09-03T00:20:58;100744.75;;;19.91;77.27
13974;BME280;7060;43.770;4.008;2022-09-03T00:23:37;100747.25;;;19.92;77.15
13974;BME280;7060;43.770;4.008;2022-09-03T00:26:17;100747.28;;;19.99;76.66
13974;BME280;7060;43.770;4.008;2022-09-03T00:28:55;100743.94;;;20.04;76.72
13974;BME280;7060;43.770;4.008;2022-09-03T00:31:29;100742.47;;;20.08;76.55
13974;BME280;7060;43.770;4.008;2022-09-03T00:34:03;100741.63;;;20.07;76.58
13974;BME280;7060;43.770;4.008;2022-09-03T00:36:35;100751.66;;;20.00;76.81
13974;BME280;7060;43.770;4.008;2022-09-03T00:39:09;100744.56;;;19.99;77.04
13974;BME280;7060;43.770;4.008;2022-09-03T00:41:43;100750.81;;;20.00;76.65
13974;BME280;7060;43.770;4.008;2022-09-03T00:44:34;100746.00;;;19.95;76.46
13974;BME280;7060;43.770;4.008;2022-09-03T00:47:10;100738.50;;;19.90;76.93
13974;BME280;7060;43.770;4.008;2022-09-03T00:49:50;100745.59;;;19.91;76.91
13974;BME280;7060;43.770;4.008;2022-09-03T00:52:30;100746.84;;;19.89;77.12
13974;BME280;7060;43.770;4.008;2022-09-03T00:55:10;100762.28;;;19.88;76.98
13974;BME280;7060;43.770;4.008;2022-09-03T00:57:47;100766.06;;;19.94;77.29
13974;BME280;7060;43.770;4.008;2022-09-03T01:00:23;100768.56;;;19.95;76.97
13974;BME280;7060;43.770;4.008;2022-09-03T01:03:00;100778.56;;;19.95;77.02
13974;BME280;7060;43.770;4.008;2022-09-03T01:05:56;100780.66;;;19.93;76.89
13974;BME280;7060;43.770;4.008;2022-09-03T01:08:39;100789.84;;;19.92;76.91
13974;BME280;7060;43.770;4.008;2022-09-03T01:11:22;100791.28;;;19.88;77.21
13974;BME280;7060;43.770;4.008;2022-09-03T01:13:59;100762.25;;;19.69;77.36
13974;BME280;7060;43.770;4.008;2022-09-03T01:16:38;100721.28;;;19.44;77.41
13974;BME280;7060;43.770;4.008;2022-09-03T01:19:41;100792.09;;;19.82;77.25
13974;BME280;7060;43.770;4.008;2022-09-03T01:22:41;100787.13;;;19.79;77.56
13974;BME280;7060;43.770;4.008;2022-09-03T01:25:24;100788.16;;;19.78;77.64
13974;BME280;7060;43.770;4.008;2022-09-03T01:28:09;100797.97;;;19.79;77.72
13974;BME280;7060;43.770;4.008;2022-09-03T01:30:50;100789.59;;;19.80;78.08
13974;BME280;7060;43.770;4.008;2022-09-03T01:33:28;100794.81;;;19.82;77.71
13974;BME280;7060;43.770;4.008;2022-09-03T01:36:05;100796.50;;;19.83;77.74
13974;BME280;7060;43.770;4.008;2022-09-03T01:38:43;100798.38;;;19.82;77.71
13974;BME280;7060;43.770;4.008;2022-09-03T01:41:22;100793.13;;;19.81;77.65
13974;BME280;7060;43.770;4.008;2022-09-03T01:44:35;100797.31;;;19.77;77.92
13974;BME280;7060;43.770;4.008;2022-09-03T01:47:13;100791.69;;;19.78;77.96
13974;BME280;7060;43.770;4.008;2022-09-03T01:49:51;100796.50;;;19.83;77.59
13974;BME280;7060;43.770;4.008;2022-09-03T01:52:30;100800.25;;;19.82;77.96
13974;BME280;7060;43.770;4.008;2022-09-03T01:55:11;100793.56;;;19.84;77.85
13974;BME280;7060;43.770;4.008;2022-09-03T01:57:51;100797.75;;;19.87;77.83
13974;BME280;7060;43.770;4.008;2022-09-03T02:00:25;100794.84;;;19.88;77.44
13974;BME280;7060;43.770;4.008;2022-09-03T02:02:54;100792.97;;;19.89;77.63
13974;BME280;7060;43.770;4.008;2022-09-03T02:05:24;100764.34;;;19.73;77.86
13974;BME280;7060;43.770;4.008;2022-09-03T02:07:57;100797.16;;;19.91;77.62
13974;BME280;7060;43.770;4.008;2022-09-03T02:10:30;100797.56;;;19.88;77.56
13974;BME280;7060;43.770;4.008;2022-09-03T02:13:03;100771.41;;;19.68;77.76
13974;BME280;7060;43.770;4.008;2022-09-03T02:15:37;100799.41;;;19.81;78.00
13974;BME280;7060;43.770;4.008;2022-09-03T02:18:10;100804.63;;;19.83;78.22
13974;BME280;7060;43.770;4.008;2022-09-03T02:20:41;100799.63;;;19.86;78.25
13974;BME280;7060;43.770;4.008;2022-09-03T02:23:09;100795.03;;;19.87;78.33
13974;BME280;7060;43.770;4.008;2022-09-03T02:25:41;100796.94;;;19.93;78.05
13974;BME280;7060;43.770;4.008;2022-09-03T02:28:14;100806.56;;;19.95;78.24
13974;BME280;7060;43.770;4.008;2022-09-03T02:30:54;100785.44;;;19.84;78.09
13974;BME280;7060;43.770;4.008;2022-09-03T02:33:24;100809.69;;;19.99;77.92
13974;BME280;7060;43.770;4.008;2022-09-03T02:35:53;100808.22;;;19.97;77.80
13974;BME280;7060;43.770;4.008;2022-09-03T02:38:23;100804.03;;;19.94;78.10
13974;BME280;7060;43.770;4.008;2022-09-03T02:40:52;100802.78;;;19.97;78.09
13974;BME280;7060;43.770;4.008;2022-09-03T02:43:25;100801.16;;;20.02;78.11
13974;BME280;7060;43.770;4.008;2022-09-03T02:46:00;100815.94;;;20.06;78.07
13974;BME280;7060;43.770;4.008;2022-09-03T02:48:29;100815.94;;;20.06;78.23
13974;BME280;7060;43.770;4.008;2022-09-03T02:50:57;100820.13;;;20.09;78.25
13974;BME280;7060;43.770;4.008;2022-09-03T02:53:26;100826.81;;;20.13;78.20
13974;BME280;7060;43.770;4.008;2022-09-03T02:55:57;100822.84;;;20.15;78.11
13974;BME280;7060;43.770;4.008;2022-09-03T02:58:28;100829.56;;;20.19;78.21
13974;BME280;7060;43.770;4.008;2022-09-03T03:00:58;100826.66;;;20.21;78.13
13974;BME280;7060;43.770;4.008;2022-09-03T03:03:27;100822.25;;;20.20;78.26
13974;BME280;7060;43.770;4.008;2022-09-03T03:05:57;100806.34;;;20.10;78.23
13974;BME280;7060;43.770;4.008;2022-09-03T03:08:27;100813.69;;;20.16;78.65
13974;BME280;7060;43.770;4.008;2022-09-03T03:10:57;100795.72;;;20.15;78.34
13974;BME280;7060;43.770;4.008;2022-09-03T03:13:27;100787.38;;;20.17;78.09
13974;BME280;7060;43.770;4.008;2022-09-03T03:15:56;100787.16;;;20.18;78.27
13974;BME280;7060;43.770;4.008;2022-09-03T03:18:26;100790.91;;;20.17;78.22
13974;BME280;7060;43.770;4.008;2022-09-03T03:20:54;100791.56;;;20.19;78.25
13974;BME280;7060;43.770;4.008;2022-09-03T03:23:23;100795.09;;;20.20;77.97
13974;BME280;7060;43.770;4.008;2022-09-03T03:25:51;100795.31;;;20.18;78.15
13974;BME280;7060;43.770;4.008;2022-09-03T03:28:20;100796.34;;;20.17;78.15
13974;BME280;7060;43.770;4.008;2022-09-03T03:30:48;100788.00;;;20.19;78.25
13974;BME280;7060;43.770;4.008;2022-09-03T03:33:17;100785.50;;;20.17;77.67
13974;BME280;7060;43.770;4.008;2022-09-03T03:35:49;100798.22;;;20.17;77.66
13974;BME280;7060;43.770;4.008;2022-09-03T03:38:17;100787.75;;;20.07;77.68
13974;BME280;7060;43.770;4.008;2022-09-03T03:40:45;100796.53;;;20.09;77.79
13974;BME280;7060;43.770;4.008;2022-09-03T03:43:14;100781.09;;;20.10;77.86
13974;BME280;7060;43.770;4.008;2022-09-03T03:45:42;100780.25;;;20.09;77.55
13974;BME280;7060;43.770;4.008;2022-09-03T03:48:10;100772.53;;;20.06;77.45
13974;BME280;7060;43.770;4.008;2022-09-03T03:50:39;100735.97;;;19.82;77.36
13974;BME280;7060;43.770;4.008;2022-09-03T03:53:09;100763.13;;;19.95;77.32
13974;BME280;7060;43.770;4.008;2022-09-03T03:55:37;100766.25;;;19.92;77.32
13974;BME280;7060;43.770;4.008;2022-09-03T03:58:05;100750.78;;;19.86;77.04
13974;BME280;7060;43.770;4.008;2022-09-03T04:00:34;100749.94;;;19.79;77.00
13974;BME280;7060;43.770;4.008;2022-09-03T04:03:04;100754.97;;;19.76;77.02
13974;BME280;7060;43.770;4.008;2022-09-03T04:05:32;100753.28;;;19.75;77.17
13974;BME280;7060;43.770;4.008;2022-09-03T04:08:01;100756.63;;;19.77;77.24
13974;BME280;7060;43.770;4.008;2022-09-03T04:10:31;100749.53;;;19.76;77.23
13974;BME280;7060;43.770;4.008;2022-09-03T04:13:00;100755.59;;;19.78;77.05
13974;BME280;7060;43.770;4.008;2022-09-03T04:15:28;100756.63;;;19.70;76.77
13974;BME280;7060;43.770;4.008;2022-09-03T04:17:57;100751.56;;;19.60;77.05
13974;BME280;7060;43.770;4.008;2022-09-03T04:20:25;100751.97;;;19.57;77.21
13974;BME280;7060;43.770;4.008;2022-09-03T04:22:53;100748.63;;;19.55;77.33
13974;BME280;7060;43.770;4.008;2022-09-03T04:25:21;100769.72;;;19.60;77.38
13974;BME280;7060;43.770;4.008;2022-09-03T04:27:51;100772.03;;;19.63;77.10
13974;BME280;7060;43.770;4.008;2022-09-03T04:30:20;100762.22;;;19.62;76.79
13974;BME280;7060;43.770;4.008;2022-09-03T04:32:48;100721.63;;;19.34;76.55
13974;BME280;7060;43.770;4.008;2022-09-03T04:35:24;100717.44;;;19.32;76.73
13974;BME280;7060;43.770;4.008;2022-09-03T04:38:01;100744.84;;;19.43;76.52
13974;BME280;7060;43.770;4.008;2022-09-03T04:40:30;100731.25;;;19.37;76.64
13974;BME280;7060;43.770;4.008;2022-09-03T04:42:59;100734.16;;;19.35;76.53
13974;BME280;7060;43.770;4.008;2022-09-03T04:45:28;100745.78;;;19.29;76.75
13974;BME280;7060;43.770;4.008;2022-09-03T04:47:58;100755.59;;;19.30;76.84
13974;BME280;7060;43.770;4.008;2022-09-03T04:50:27;100756.63;;;19.29;76.88
13974;BME280;7060;43.770;4.008;2022-09-03T04:52:59;100748.69;;;19.21;77.06
13974;BME280;7060;43.770;4.008;2022-09-03T04:55:34;100759.34;;;19.29;76.51
13974;BME280;7060;43.770;4.008;2022-09-03T04:58:04;100761.63;;;19.25;76.21
13974;BME280;7060;43.770;4.008;2022-09-03T05:00:35;100753.69;;;19.17;76.47
13974;BME280;7060;43.770;4.008;2022-09-03T05:03:03;100746.94;;;19.07;76.66
13974;BME280;7060;43.770;4.008;2022-09-03T05:05:32;100748.16;;;18.98;76.92
13974;BME280;7060;43.770;4.008;2022-09-03T05:08:00;100764.84;;;18.94;77.18
13974;BME280;7060;43.770;4.008;2022-09-03T05:10:29;100787.94;;;18.97;77.45
13974;BME280;7060;43.770;4.008;2022-09-03T05:12:58;100808.19;;;19.01;77.43
13974;BME280;7060;43.770;4.008;2022-09-03T05:15:30;100810.13;;;19.07;77.47
13974;BME280;7060;43.770;4.008;2022-09-03T05:17:59;100805.78;;;19.13;77.49
13974;BME280;7060;43.770;4.008;2022-09-03T05:20:29;100808.72;;;19.18;77.21
13974;BME280;7060;43.770;4.008;2022-09-03T05:23:00;100813.13;;;19.19;77.22
13974;BME280;7060;43.770;4.008;2022-09-03T05:25:29;100815.19;;;19.17;77.42
13974;BME280;7060;43.770;4.008;2022-09-03T05:27:59;100815.44;;;19.22;77.55
13974;BME280;7060;43.770;4.008;2022-09-03T05:30:29;100807.50;;;19.27;77.31
13974;BME280;7060;43.770;4.008;2022-09-03T05:32:57;100805.81;;;19.26;77.31
13974;BME280;7060;43.770;4.008;2022-09-03T05:35:25;100808.97;;;19.23;77.37
13974;BME280;7060;43.770;4.008;2022-09-03T05:37:56;100803.09;;;19.19;77.46
13974;BME280;7060;43.770;4.008;2022-09-03T05:40:26;100795.78;;;19.13;77.77
13974;BME280;7060;43.770;4.008;2022-09-03T05:42:55;100817.44;;;19.13;78.18
13974;BME280;7060;43.770;4.008;2022-09-03T05:45:25;100798.91;;;19.17;78.06
13974;BME280;7060;43.770;4.008;2022-09-03T05:47:58;100802.06;;;19.20;78.13
13974;BME280;7060;43.770;4.008;2022-09-03T05:50:27;100811.44;;;19.24;78.15
13974;BME280;7060;43.770;4.008;2022-09-03T05:52:57;100812.53;;;19.30;78.05
13974;BME280;7060;43.770;4.008;2022-09-03T05:55:26;100808.78;;;19.31;78.15
13974;BME280;7060;43.770;4.008;2022-09-03T05:57:55;100798.38;;;19.35;77.90
13974;BME280;7060;43.770;4.008;2022-09-03T06:00:23;100805.47;;;19.36;78.13
13974;BME280;7060;43.770;4.008;2022-09-03T06:02:52;100799.22;;;19.35;77.84
13974;BME280;7060;43.770;4.008;2022-09-03T06:05:22;100793.16;;;19.33;78.06
13974;BME280;7060;43.770;4.008;2022-09-03T06:07:51;100798.97;;;19.30;78.06
13974;BME280;7060;43.770;4.008;2022-09-03T06:10:19;100799.41;;;19.34;77.84
13974;BME280;7060;43.770;4.008;2022-09-03T06:12:53;100813.44;;;19.37;78.08
13974;BME280;7060;43.770;4.008;2022-09-03T06:15:29;100822.44;;;19.44;77.96
13974;BME280;7060;43.770;4.008;2022-09-03T06:17:58;100833.72;;;19.54;77.69
13974;BME280;7060;43.770;4.008;2022-09-03T06:20:28;100829.59;;;19.58;77.63
13974;BME280;7060;43.770;4.008;2022-09-03T06:23:02;100831.25;;;19.59;77.84
13974;BME280;7060;43.770;4.008;2022-09-03T06:25:31;100832.72;;;19.62;78.10
13974;BME280;7060;43.770;4.008;2022-09-03T06:27:59;100817.09;;;19.64;78.29
13974;BME280;7060;43.770;4.008;2022-09-03T06:30:28;100817.53;;;19.68;78.83
13974;BME280;7060;43.770;4.008;2022-09-03T06:32:56;100822.56;;;19.77;79.23
13974;BME280;7060;43.770;4.008;2022-09-03T06:35:25;100813.41;;;19.85;78.77
13974;BME280;7060;43.770;4.008;2022-09-03T06:37:56;100816.56;;;19.95;78.60
13974;BME280;7060;43.770;4.008;2022-09-03T06:40:26;100809.66;;;19.92;78.31
13974;BME280;7060;43.770;4.008;2022-09-03T06:42:55;100830.34;;;20.07;77.95
13974;BME280;7060;43.770;4.008;2022-09-03T06:45:25;100823.28;;;20.12;78.03
13974;BME280;7060;43.770;4.008;2022-09-03T06:47:53;100817.03;;;20.18;77.45
13974;BME280;7060;43.770;4.008;2022-09-03T06:50:22;100818.53;;;20.27;77.32
13974;BME280;7060;43.770;4.008;2022-09-03T06:52:51;100812.47;;;20.45;77.97
13974;BME280;7060;43.770;4.008;2022-09-03T06:55:22;100809.53;;;20.67;76.72
13974;BME280;7060;43.770;4.008;2022-09-03T06:57:54;100800.34;;;20.87;75.85
13974;BME280;7060;43.770;4.008;2022-09-03T07:00:22;100811.63;;;21.11;74.81
13974;BME280;7060;43.770;4.008;2022-09-03T07:02:55;100820.34;;;21.33;73.69
13974;BME280;7060;43.770;4.008;2022-09-03T07:05:25;100821.09;;;21.46;72.50
13974;BME280;7060;43.770;4.008;2022-09-03T07:07:54;100824.22;;;21.56;71.80
13974;BME280;7060;43.770;4.008;2022-09-03T07:10:24;100815.63;;;21.59;70.49
13974;BME280;7060;43.770;4.008;2022-09-03T07:12:54;100813.53;;;21.55;70.71
13974;BME280;7060;43.770;4.008;2022-09-03T07:15:22;100816.50;;;21.47;70.54
13974;BME280;7060;43.770;4.008;2022-09-03T07:17:52;100823.66;;;21.41;71.05
13974;BME280;7060;43.770;4.008;2022-09-03T07:20:21;100834.97;;;21.38;71.77
13974;BME280;7060;43.770;4.008;2022-09-03T07:22:49;100825.97;;;21.31;70.92
13974;BME280;7060;43.770;4.008;2022-09-03T07:25:24;100827.88;;;21.24;71.72
13974;BME280;7060;43.770;4.008;2022-09-03T07:27:53;100835.22;;;21.81;69.70
13974;BME280;7060;43.770;4.008;2022-09-03T07:30:21;100827.06;;;21.75;70.84
13974;BME280;7060;43.770;4.008;2022-09-03T07:32:52;100831.44;;;21.76;70.55
13974;BME280;7060;43.770;4.008;2022-09-03T07:35:21;100833.53;;;21.74;70.88
13974;BME280;7060;43.770;4.008;2022-09-03T07:37:52;100837.53;;;21.71;70.35
13974;BME280;7060;43.770;4.008;2022-09-03T07:40:23;100836.53;;;21.66;71.18
13974;BME280;7060;43.770;4.008;2022-09-03T07:42:56;100841.56;;;21.62;70.88
13974;BME280;7060;43.770;4.008;2022-09-03T07:45:27;100837.81;;;21.56;70.84
13974;BME280;7060;43.770;4.008;2022-09-03T07:47:56;100837.63;;;21.51;70.85
13974;BME280;7060;43.770;4.008;2022-09-03T07:50:24;100845.56;;;21.59;71.03
13974;BME280;7060;43.770;4.008;2022-09-03T07:52:55;100842.13;;;21.77;70.05
13974;BME280;7060;43.770;4.008;2022-09-03T07:55:25;100842.28;;;21.95;68.65
13974;BME280;7060;43.770;4.008;2022-09-03T07:57:54;100841.34;;;22.08;68.75
13974;BME280;7060;43.770;4.008;2022-09-03T08:00:23;100834.59;;;22.17;68.61
13974;BME280;7060;43.770;4.008;2022-09-03T08:02:54;100845.09;;;22.45;67.99
13974;BME280;7060;43.770;4.008;2022-09-03T08:05:25;100848.06;;;22.69;67.92
13974;BME280;7060;43.770;4.008;2022-09-03T08:07:53;100835.75;;;22.84;67.25
13974;BME280;7060;43.770;4.008;2022-09-03T08:10:22;100846.94;;;23.01;65.99
13974;BME280;7060;43.770;4.008;2022-09-03T08:12:53;100860.66;;;23.13;65.55
13974;BME280;7060;43.770;4.008;2022-09-03T08:15:23;100859.91;;;23.24;65.92
13974;BME280;7060;43.770;4.008;2022-09-03T08:17:52;100862.41;;;23.32;65.13
13974;BME280;7060;43.770;4.008;2022-09-03T08:20:29;100869.13;;;23.48;64.16
13974;BME280;7060;43.770;4.008;2022-09-03T08:23:01;100864.13;;;23.63;63.92
13974;BME280;7060;43.770;4.008;2022-09-03T08:25:29;100855.63;;;23.71;63.08
13974;BME280;7060;43.770;4.008;2022-09-03T08:28:00;100858.03;;;23.79;63.50
13974;BME280;7060;43.770;4.008;2022-09-03T08:30:28;100859.41;;;23.88;63.11
13974;BME280;7060;43.770;4.008;2022-09-03T08:33:00;100871.47;;;23.99;62.96
13974;BME280;7060;43.770;4.008;2022-09-03T08:35:30;100859.84;;;24.04;61.85
13974;BME280;7060;43.770;4.008;2022-09-03T08:38:00;100861.44;;;24.11;61.86
13974;BME280;7060;43.770;4.008;2022-09-03T08:40:36;100860.63;;;24.22;62.42
13974;BME280;7060;43.770;4.008;2022-09-03T08:43:11;100858.31;;;24.38;62.18
13974;BME280;7060;43.770;4.008;2022-09-03T08:45:43;100860.09;;;24.44;61.40
13974;BME280;7060;43.770;4.008;2022-09-03T08:48:15;100863.53;;;24.51;60.99
13974;BME280;7060;43.770;4.008;2022-09-03T08:50:52;100853.72;;;24.61;60.35
13974;BME280;7060;43.770;4.008;2022-09-03T08:53:35;100847.72;;;24.71;59.83
13974;BME280;7060;43.770;4.008;2022-09-03T08:56:10;100850.78;;;24.86;59.90
13974;BME280;7060;43.770;4.008;2022-09-03T08:58:41;100850.06;;;25.03;60.21
13974;BME280;7060;43.770;4.008;2022-09-03T09:01:20;100856.38;;;25.15;59.83
13974;BME280;7060;43.770;4.008;2022-09-03T09:03:55;100853.88;;;25.25;59.49
13974;BME280;7060;43.770;4.008;2022-09-03T09:06:31;100854.97;;;25.24;58.05
13974;BME280;7060;43.770;4.008;2022-09-03T09:09:11;100855.19;;;25.22;58.15
13974;BME280;7060;43.770;4.008;2022-09-03T09:11:52;100858.75;;;25.11;58.43
13974;BME280;7060;43.770;4.008;2022-09-03T09:14:29;100852.44;;;24.99;58.97
13974;BME280;7060;43.770;4.008;2022-09-03T09:17:10;100854.38;;;24.99;58.72
13974;BME280;7060;43.770;4.008;2022-09-03T09:19:51;100861.38;;;25.06;58.81
13974;BME280;7060;43.770;4.008;2022-09-03T09:22:29;100850.56;;;25.11;58.46
13974;BME280;7060;43.770;4.008;2022-09-03T09:25:03;100853.38;;;25.28;58.44
13974;BME280;7060;43.770;4.008;2022-09-03T09:27:35;100793.69;;;25.02;57.85
13974;BME280;7060;43.770;4.008;2022-09-03T09:30:06;100852.81;;;25.49;57.90
13974;BME280;7060;43.770;4.008;2022-09-03T09:32:36;100847.53;;;25.59;57.14
13974;BME280;7060;43.770;4.008;2022-09-03T09:35:10;100839.78;;;25.56;56.88
13974;BME280;7060;43.770;4.008;2022-09-03T09:37:46;100837.06;;;25.56;56.90
13974;BME280;7060;43.770;4.008;2022-09-03T09:40:26;100838.97;;;25.56;56.60
13974;BME280;7060;43.770;4.008;2022-09-03T09:43:07;100833.72;;;25.54;56.16
13974;BME280;7060;43.770;4.008;2022-09-03T09:45:40;100835.25;;;25.62;56.57
13974;BME280;7060;43.770;4.008;2022-09-03T09:48:17;100831.22;;;25.64;56.27
13974;BME280;7060;43.770;4.008;2022-09-03T09:51:05;100832.63;;;25.67;57.27
13974;BME280;7060;43.770;4.008;2022-09-03T09:53:34;100827.25;;;25.72;55.67
13974;BME280;7060;43.770;4.008;2022-09-03T09:56:02;100821.31;;;25.75;55.43
13974;BME280;7060;43.770;4.008;2022-09-03T09:58:33;100821.72;;;25.84;56.52
13974;BME280;7060;43.770;4.008;2022-09-03T10:01:09;100816.00;;;25.97;56.99
13974;BME280;7060;43.770;4.008;2022-09-03T10:03:47;100813.59;;;26.01;54.41
13974;BME280;7060;43.770;4.008;2022-09-03T10:06:16;100815.84;;;26.04;56.50
13974;BME280;7060;43.770;4.008;2022-09-03T10:09:07;100820.91;;;26.12;55.72
13974;BME280;7060;43.770;4.008;2022-09-03T10:11:38;100817.78;;;26.20;55.52
13974;BME280;7060;43.770;4.008;2022-09-03T10:14:11;100816.88;;;26.31;54.50
13974;BME280;7060;43.770;4.008;2022-09-03T10:16:48;100816.66;;;26.33;55.28
13974;BME280;7060;43.770;4.008;2022-09-03T10:19:19;100811.31;;;26.43;54.94
13974;BME280;7060;43.770;4.008;2022-09-03T10:21:56;100809.25;;;26.50;54.75
13974;BME280;7060;43.770;4.008;2022-09-03T10:24:42;100811.13;;;26.61;54.20
13974;BME280;7060;43.770;4.008;2022-09-03T10:27:16;100804.69;;;26.72;54.52
13974;BME280;7060;43.770;4.008;2022-09-03T10:29:45;100800.78;;;26.85;54.92
13974;BME280;7060;43.770;4.008;2022-09-03T10:32:31;100794.94;;;26.98;54.54
13974;BME280;7060;43.770;4.008;2022-09-03T10:35:15;100803.16;;;26.98;53.77
13974;BME280;7060;43.770;4.008;2022-09-03T10:37:50;100798.50;;;26.98;54.32
13974;BME280;7060;43.770;4.008;2022-09-03T10:40:29;100798.22;;;27.17;54.43
13974;BME280;7060;43.770;4.008;2022-09-03T10:43:29;100792.00;;;27.43;53.33
13974;BME280;7060;43.770;4.008;2022-09-03T10:46:10;100780.16;;;27.64;53.40
13974;BME280;7060;43.770;4.008;2022-09-03T10:48:47;100784.50;;;27.82;52.16
13974;BME280;7060;43.770;4.008;2022-09-03T10:51:20;100765.63;;;27.91;52.06
13974;BME280;7060;43.770;4.008;2022-09-03T10:54:10;100767.13;;;28.04;51.60
13974;BME280;7060;43.770;4.008;2022-09-03T10:56:49;100760.38;;;28.16;48.82
13974;BME280;7060;43.770;4.008;2022-09-03T10:59:42;100768.16;;;28.24;49.69
13974;BME280;7060;43.770;4.008;2022-09-03T11:02:28;100756.59;;;28.27;50.67
13974;BME280;7060;43.770;4.008;2022-09-03T11:05:04;100756.22;;;28.41;49.94
13974;BME280;7060;43.770;4.008;2022-09-03T11:07:35;100749.34;;;28.43;48.70
13974;BME280;7060;43.770;4.008;2022-09-03T11:10:12;100754.84;;;28.43;48.24
13974;BME280;7060;43.770;4.008;2022-09-03T11:12:47;100751.47;;;28.36;49.14
13974;BME280;7060;43.770;4.008;2022-09-03T11:15:23;100744.59;;;28.39;48.72
13974;BME280;7060;43.770;4.008;2022-09-03T11:17:57;100755.69;;;28.44;48.27
13974;BME280;7060;43.770;4.008;2022-09-03T11:20:29;100752.94;;;28.44;47.11
13974;BME280;7060;43.770;4.008;2022-09-03T11:23:00;100743.84;;;28.43;48.00
13974;BME280;7060;43.770;4.008;2022-09-03T11:25:43;100746.91;;;28.47;48.14
13974;BME280;7060;43.770;4.008;2022-09-03T11:28:30;100738.34;;;28.43;47.67
13974;BME280;7060;43.770;4.008;2022-09-03T11:31:15;100734.50;;;28.44;49.23
13974;BME280;7060;43.770;4.008;2022-09-03T11:33:58;100740.00;;;28.44;49.31
13974;BME280;7060;43.770;4.008;2022-09-03T11:36:31;100746.66;;;28.48;47.03
13974;BME280;7060;43.770;4.008;2022-09-03T11:39:12;100745.50;;;28.44;48.17
13974;BME280;7060;43.770;4.008;2022-09-03T11:41:43;100746.66;;;28.48;48.21
13974;BME280;7060;43.770;4.008;2022-09-03T11:44:18;100754.38;;;28.56;48.50
13974;BME280;7060;43.770;4.008;2022-09-03T11:46:54;100754.69;;;28.60;47.62
13974;BME280;7060;43.770;4.008;2022-09-03T11:49:28;100759.03;;;28.51;47.62
13974;BME280;7060;43.770;4.008;2022-09-03T11:52:00;100757.38;;;28.50;48.51
13974;BME280;7060;43.770;4.008;2022-09-03T11:54:31;100757.13;;;28.51;48.28
13974;BME280;7060;43.770;4.008;2022-09-03T11:57:09;100749.09;;;28.45;48.40
13974;BME280;7060;43.770;4.008;2022-09-03T11:59:40;100760.72;;;28.57;48.56
13974;BME280;7060;43.770;4.008;2022-09-03T12:02:24;100759.31;;;28.49;48.46
13974;BME280;7060;43.770;4.008;2022-09-03T12:05:13;100762.28;;;28.43;49.06
13974;BME280;7060;43.770;4.008;2022-09-03T12:07:59;100761.19;;;28.44;48.26
13974;BME280;7060;43.770;4.008;2022-09-03T12:10:43;100753.25;;;28.47;48.65
13974;BME280;7060;43.770;4.008;2022-09-03T12:13:37;100757.88;;;28.42;47.98
13974;BME280;7060;43.770;4.008;2022-09-03T12:16:24;100753.38;;;28.36;49.11
13974;BME280;7060;43.770;4.008;2022-09-03T12:19:02;100744.16;;;28.47;49.68
13974;BME280;7060;43.770;4.008;2022-09-03T12:21:47;100729.88;;;28.55;48.49
13974;BME280;7060;43.770;4.008;2022-09-03T12:24:19;100754.28;;;28.83;48.03
13974;BME280;7060;43.770;4.008;2022-09-03T12:26:49;100756.00;;;28.94;48.35
13974;BME280;7060;43.770;4.008;2022-09-03T12:29:21;100751.97;;;29.02;47.95
13974;BME280;7060;43.770;4.008;2022-09-03T12:31:54;100756.84;;;28.95;47.54
13974;BME280;7060;43.770;4.008;2022-09-03T12:34:23;100759.50;;;28.80;48.06
13974;BME280;7060;43.770;4.008;2022-09-03T12:36:53;100757.28;;;28.77;49.25
13974;BME280;7060;43.770;4.008;2022-09-03T12:39:24;100753.47;;;28.88;49.40
13974;BME280;7060;43.770;4.008;2022-09-03T12:42:18;100755.47;;;28.97;47.74
13974;BME280;7060;43.770;4.008;2022-09-03T12:44:48;100758.81;;;29.00;47.60
13974;BME280;7060;43.770;4.008;2022-09-03T12:47:18;100726.22;;;28.86;45.98
13974;BME280;7060;43.770;4.008;2022-09-03T12:50:06;100746.72;;;29.01;46.79
13974;BME280;7060;43.770;4.008;2022-09-03T12:52:38;100756.69;;;29.17;45.75
13974;BME280;7060;43.770;4.008;2022-09-03T12:55:18;100749.28;;;29.22;45.27
13974;BME280;7060;43.770;4.008;2022-09-03T12:58:02;100759.75;;;29.20;44.81
13974;BME280;7060;43.770;4.008;2022-09-03T13:00:41;100756.72;;;29.22;45.26
13974;BME280;7060;43.770;4.008;2022-09-03T13:03:16;100752.88;;;29.23;45.71
13974;BME280;7060;43.770;4.008;2022-09-03T13:05:49;100752.09;;;29.33;46.99
13974;BME280;7060;43.770;4.008;2022-09-03T13:08:21;100753.47;;;29.40;46.38
13974;BME280;7060;43.770;4.008;2022-09-03T13:10:55;100755.66;;;29.28;46.18
13974;BME280;7060;43.770;4.008;2022-09-03T13:13:25;100750.06;;;29.08;46.61
13974;BME280;7060;43.770;4.008;2022-09-03T13:16:18;100746.66;;;28.95;47.27
13974;BME280;7060;43.770;4.008;2022-09-03T13:18:57;100741.94;;;28.91;47.82
13974;BME280;7060;43.770;4.008;2022-09-03T13:21:38;100740.88;;;28.97;48.30
13974;BME280;7060;43.770;4.008;2022-09-03T13:24:27;100740.72;;;29.09;46.96
13974;BME280;7060;43.770;4.008;2022-09-03T13:27:14;100739.06;;;29.18;46.96
13974;BME280;7060;43.770;4.008;2022-09-03T13:30:03;100734.63;;;29.12;45.93
13974;BME280;7060;43.770;4.008;2022-09-03T13:32:41;100744.00;;;29.06;46.12
13974;BME280;7060;43.770;4.008;2022-09-03T13:35:19;100738.22;;;29.12;47.60